Data Viewer
| City | State | Eastern Time | Source | Temp | DewPt | RH | BP | 5 Min Precip | Wind Speed | Wind Dir | 5 Min Wind Max | 5 Min Wind Max Dir |
|---|---|---|---|---|---|---|---|---|---|---|---|---|
| Ocean City | NJ | 2026-05-04 23:05 | NJDOT | 56 | 49 | 77 | ||||||
| Ocean City | NJ | 2026-05-05 16:30 | NJDOT | 67 | 52 | 59 | ||||||
| Ocean City | NJ | 2026-05-05 15:35 | NJDOT | 68 | 52 | 57 | ||||||
| Ocean City | NJ | 2026-05-05 15:40 | NJDOT | 68 | 52 | 57 | ||||||
| Ocean City | NJ | 2026-05-05 15:45 | NJDOT | 68 | 52 | 57 | ||||||
| Ocean City | NJ | 2026-05-05 15:50 | NJDOT | 67 | 52 | 59 | ||||||
| Ocean City | NJ | 2026-05-05 16:00 | NJDOT | 67 | 52 | 59 | ||||||
| Ocean City | NJ | 2026-05-05 16:05 | NJDOT | 67 | 52 | 59 | ||||||
| Ocean City | NJ | 2026-05-05 16:10 | NJDOT | 67 | 52 | 59 | ||||||
| Ocean City | NJ | 2026-05-05 16:15 | NJDOT | 67 | 52 | 59 | ||||||
| Ocean City | NJ | 2026-05-05 16:20 | NJDOT | 67 | 52 | 59 | ||||||
| Ocean City | NJ | 2026-05-05 16:25 | NJDOT | 67 | 52 | 59 | ||||||
| Ocean City | NJ | 2026-05-05 16:35 | NJDOT | 67 | 52 | 59 | ||||||
| Ocean City | NJ | 2026-05-05 15:25 | NJDOT | 68 | 52 | 57 | ||||||
| Ocean City | NJ | 2026-05-05 16:40 | NJDOT | 67 | 52 | 59 | ||||||
| Ocean City | NJ | 2026-05-05 16:45 | NJDOT | 67 | 52 | 59 | ||||||
| Ocean City | NJ | 2026-05-05 16:50 | NJDOT | 67 | 52 | 59 | ||||||
| Ocean City | NJ | 2026-05-05 17:00 | NJDOT | 67 | 52 | 59 | ||||||
| Ocean City | NJ | 2026-05-05 17:05 | NJDOT | 67 | 52 | 59 | ||||||
| Ocean City | NJ | 2026-05-05 17:10 | NJDOT | 67 | 52 | 59 | ||||||
| Ocean City | NJ | 2026-05-05 17:15 | NJDOT | 67 | 52 | 59 | ||||||
| Ocean City | NJ | 2026-05-05 17:20 | NJDOT | 67 | 52 | 59 | ||||||
| Ocean City | NJ | 2026-05-05 17:25 | NJDOT | 67 | 52 | 59 | ||||||
| Ocean City | NJ | 2026-05-05 17:30 | NJDOT | 67 | 52 | 59 | ||||||
| Ocean City | NJ | 2026-05-05 15:30 | NJDOT | 68 | 52 | 57 | ||||||
| Ocean City | NJ | 2026-05-05 15:20 | NJDOT | 68 | 52 | 57 | ||||||
| Ocean City | NJ | 2026-05-05 17:40 | NJDOT | 67 | 52 | 59 | ||||||
| Ocean City | NJ | 2026-05-05 14:05 | NJDOT | 69 | 52 | 55 | ||||||
| Ocean City | NJ | 2026-05-05 13:10 | NJDOT | 70 | 51 | 51 | ||||||
| Ocean City | NJ | 2026-05-05 13:15 | NJDOT | 70 | 51 | 51 | ||||||
| Ocean City | NJ | 2026-05-05 13:20 | NJDOT | 70 | 51 | 51 | ||||||
| Ocean City | NJ | 2026-05-05 13:25 | NJDOT | 70 | 51 | 51 | ||||||
| Ocean City | NJ | 2026-05-05 13:30 | NJDOT | 70 | 51 | 51 | ||||||
| Ocean City | NJ | 2026-05-05 13:35 | NJDOT | 70 | 51 | 51 | ||||||
| Ocean City | NJ | 2026-05-05 13:40 | NJDOT | 70 | 51 | 51 | ||||||
| Ocean City | NJ | 2026-05-05 13:45 | NJDOT | 70 | 51 | 51 | ||||||
| Ocean City | NJ | 2026-05-05 13:50 | NJDOT | 69 | 52 | 55 | ||||||
| Ocean City | NJ | 2026-05-05 14:00 | NJDOT | 69 | 52 | 55 | ||||||
| Ocean City | NJ | 2026-05-05 14:10 | NJDOT | 69 | 52 | 55 | ||||||
| Ocean City | NJ | 2026-05-05 15:15 | NJDOT | 68 | 52 | 57 | ||||||
| Ocean City | NJ | 2026-05-05 14:15 | NJDOT | 69 | 52 | 55 | ||||||
| Ocean City | NJ | 2026-05-05 14:20 | NJDOT | 69 | 52 | 55 | ||||||
| Ocean City | NJ | 2026-05-05 14:25 | NJDOT | 69 | 52 | 55 | ||||||
| Ocean City | NJ | 2026-05-05 14:30 | NJDOT | 69 | 52 | 55 | ||||||
| Ocean City | NJ | 2026-05-05 14:35 | NJDOT | 69 | 52 | 55 | ||||||
| Ocean City | NJ | 2026-05-05 14:40 | NJDOT | 69 | 52 | 55 | ||||||
| Ocean City | NJ | 2026-05-05 14:45 | NJDOT | 70 | 52 | 53 | ||||||
| Ocean City | NJ | 2026-05-05 14:50 | NJDOT | 68 | 52 | 57 | ||||||
| Ocean City | NJ | 2026-05-05 15:00 | NJDOT | 68 | 52 | 57 | ||||||
| Ocean City | NJ | 2026-05-05 15:05 | NJDOT | 68 | 52 | 57 | ||||||
| Ocean City | NJ | 2026-05-05 15:10 | NJDOT | 68 | 52 | 57 | ||||||
| Ocean City | NJ | 2026-05-05 17:35 | NJDOT | 67 | 52 | 59 | ||||||
| Ocean City | NJ | 2026-05-05 17:45 | NJDOT | 67 | 52 | 59 | ||||||
| Ocean City | NJ | 2026-05-05 13:00 | NJDOT | 70 | 51 | 51 | ||||||
| Ocean City | NJ | 2026-05-05 21:45 | NJDOT | 62 | 53 | 73 | ||||||
| Ocean City | NJ | 2026-05-05 20:40 | NJDOT | 62 | 52 | 70 | ||||||
| Ocean City | NJ | 2026-05-05 20:45 | NJDOT | 62 | 52 | 70 | ||||||
| Ocean City | NJ | 2026-05-05 20:50 | NJDOT | 62 | 53 | 73 | ||||||
| Ocean City | NJ | 2026-05-05 21:05 | NJDOT | 62 | 53 | 73 | ||||||
| Ocean City | NJ | 2026-05-05 21:10 | NJDOT | 62 | 53 | 73 | ||||||
| Ocean City | NJ | 2026-05-05 21:20 | NJDOT | 62 | 53 | 73 | ||||||
| Ocean City | NJ | 2026-05-05 21:25 | NJDOT | 62 | 53 | 73 | ||||||
| Ocean City | NJ | 2026-05-05 21:30 | NJDOT | 62 | 53 | 73 | ||||||
| Ocean City | NJ | 2026-05-05 21:35 | NJDOT | 62 | 53 | 73 | ||||||
| Ocean City | NJ | 2026-05-05 21:40 | NJDOT | 62 | 53 | 73 | ||||||
| Ocean City | NJ | 2026-05-05 21:50 | NJDOT | 62 | 53 | 73 | ||||||
| Ocean City | NJ | 2026-05-05 20:30 | NJDOT | 62 | 52 | 70 | ||||||
| Ocean City | NJ | 2026-05-05 22:00 | NJDOT | 62 | 53 | 73 | ||||||
| Ocean City | NJ | 2026-05-05 22:05 | NJDOT | 62 | 53 | 73 | ||||||
| Ocean City | NJ | 2026-05-05 22:15 | NJDOT | 62 | 53 | 73 | ||||||
| Ocean City | NJ | 2026-05-05 22:20 | NJDOT | 62 | 53 | 73 | ||||||
| Ocean City | NJ | 2026-05-05 22:25 | NJDOT | 62 | 53 | 73 | ||||||
| Ocean City | NJ | 2026-05-05 22:30 | NJDOT | 62 | 53 | 73 | ||||||
| Ocean City | NJ | 2026-05-05 22:35 | NJDOT | 62 | 53 | 73 | ||||||
| Ocean City | NJ | 2026-05-05 22:40 | NJDOT | 62 | 53 | 73 | ||||||
| Ocean City | NJ | 2026-05-05 22:45 | NJDOT | 62 | 53 | 73 | ||||||
| Ocean City | NJ | 2026-05-05 22:50 | NJDOT | 61 | 54 | 78 | ||||||
| Ocean City | NJ | 2026-05-05 20:35 | NJDOT | 62 | 52 | 70 | ||||||
| Ocean City | NJ | 2026-05-05 20:25 | NJDOT | 62 | 52 | 70 | ||||||
| Ocean City | NJ | 2026-05-05 17:50 | NJDOT | 66 | 52 | 61 | ||||||
| Ocean City | NJ | 2026-05-05 19:10 | NJDOT | 64 | 52 | 65 | ||||||
| Ocean City | NJ | 2026-05-05 18:00 | NJDOT | 66 | 52 | 61 | ||||||
| Ocean City | NJ | 2026-05-05 18:05 | NJDOT | 66 | 52 | 61 | ||||||
| Ocean City | NJ | 2026-05-05 18:10 | NJDOT | 66 | 52 | 61 | ||||||
| Ocean City | NJ | 2026-05-05 18:15 | NJDOT | 66 | 52 | 61 | ||||||
| Ocean City | NJ | 2026-05-05 18:20 | NJDOT | 66 | 52 | 61 | ||||||
| Ocean City | NJ | 2026-05-05 18:25 | NJDOT | 66 | 52 | 61 | ||||||
| Ocean City | NJ | 2026-05-05 18:30 | NJDOT | 66 | 52 | 61 | ||||||
| Ocean City | NJ | 2026-05-05 18:40 | NJDOT | 66 | 52 | 61 | ||||||
| Ocean City | NJ | 2026-05-05 19:00 | NJDOT | 64 | 52 | 65 | ||||||
| Ocean City | NJ | 2026-05-05 19:05 | NJDOT | 64 | 52 | 65 | ||||||
| Ocean City | NJ | 2026-05-05 19:15 | NJDOT | 64 | 52 | 65 | ||||||
| Ocean City | NJ | 2026-05-05 20:20 | NJDOT | 62 | 52 | 70 | ||||||
| Ocean City | NJ | 2026-05-05 19:20 | NJDOT | 64 | 52 | 65 | ||||||
| Ocean City | NJ | 2026-05-05 19:25 | NJDOT | 64 | 52 | 65 | ||||||
| Ocean City | NJ | 2026-05-05 19:30 | NJDOT | 64 | 52 | 65 | ||||||
| Ocean City | NJ | 2026-05-05 19:35 | NJDOT | 64 | 52 | 65 | ||||||
| Ocean City | NJ | 2026-05-05 19:40 | NJDOT | 64 | 52 | 65 | ||||||
| Ocean City | NJ | 2026-05-05 19:45 | NJDOT | 64 | 52 | 65 | ||||||
| Ocean City | NJ | 2026-05-05 19:50 | NJDOT | 62 | 52 | 70 | ||||||
| Ocean City | NJ | 2026-05-05 20:00 | NJDOT | 62 | 52 | 70 | ||||||
| Ocean City | NJ | 2026-05-05 20:05 | NJDOT | 62 | 52 | 70 | ||||||
| Ocean City | NJ | 2026-05-05 20:10 | NJDOT | 62 | 52 | 70 | ||||||
| Ocean City | NJ | 2026-05-05 20:15 | NJDOT | 62 | 52 | 70 | ||||||
| Ocean City | NJ | 2026-05-05 13:05 | NJDOT | 70 | 51 | 51 | ||||||
| Ocean City | NJ | 2026-05-05 12:40 | NJDOT | 69 | 51 | 53 | ||||||
| Ocean City | NJ | 2026-05-04 23:10 | NJDOT | 56 | 49 | 77 | ||||||
| Ocean City | NJ | 2026-05-05 06:20 | NJDOT | 60 | 50 | 70 | ||||||
| Ocean City | NJ | 2026-05-05 05:25 | NJDOT | 60 | 51 | 72 | ||||||
| Ocean City | NJ | 2026-05-05 05:30 | NJDOT | 60 | 51 | 72 | ||||||
| Ocean City | NJ | 2026-05-05 05:35 | NJDOT | 60 | 51 | 72 | ||||||
| Ocean City | NJ | 2026-05-05 05:40 | NJDOT | 60 | 51 | 72 | ||||||
| Ocean City | NJ | 2026-05-05 05:45 | NJDOT | 60 | 51 | 72 | ||||||
| Ocean City | NJ | 2026-05-05 05:50 | NJDOT | 60 | 50 | 70 | ||||||
| Ocean City | NJ | 2026-05-05 06:00 | NJDOT | 60 | 50 | 70 | ||||||
| Ocean City | NJ | 2026-05-05 06:05 | NJDOT | 60 | 50 | 70 | ||||||
| Ocean City | NJ | 2026-05-05 06:10 | NJDOT | 60 | 50 | 70 | ||||||
| Ocean City | NJ | 2026-05-05 06:15 | NJDOT | 60 | 50 | 70 | ||||||
| Ocean City | NJ | 2026-05-05 06:25 | NJDOT | 60 | 50 | 70 | ||||||
| Ocean City | NJ | 2026-05-05 05:15 | NJDOT | 60 | 51 | 72 | ||||||
| Ocean City | NJ | 2026-05-05 06:30 | NJDOT | 60 | 50 | 70 | ||||||
| Ocean City | NJ | 2026-05-05 06:35 | NJDOT | 60 | 50 | 70 | ||||||
| Ocean City | NJ | 2026-05-05 07:00 | NJDOT | 61 | 51 | 70 | ||||||
| Ocean City | NJ | 2026-05-05 07:05 | NJDOT | 61 | 51 | 70 | ||||||
| Ocean City | NJ | 2026-05-05 07:10 | NJDOT | 61 | 51 | 70 | ||||||
| Ocean City | NJ | 2026-05-05 07:15 | NJDOT | 61 | 51 | 70 | ||||||
| Ocean City | NJ | 2026-05-05 07:20 | NJDOT | 61 | 51 | 70 | ||||||
| Ocean City | NJ | 2026-05-05 07:25 | NJDOT | 61 | 51 | 70 | ||||||
| Ocean City | NJ | 2026-05-05 07:30 | NJDOT | 61 | 51 | 70 | ||||||
| Ocean City | NJ | 2026-05-05 07:35 | NJDOT | 61 | 51 | 70 | ||||||
| Ocean City | NJ | 2026-05-05 05:20 | NJDOT | 60 | 51 | 72 | ||||||
| Ocean City | NJ | 2026-05-05 05:10 | NJDOT | 60 | 51 | 72 | ||||||
| Ocean City | NJ | 2026-05-05 07:45 | NJDOT | 61 | 51 | 70 | ||||||
| Ocean City | NJ | 2026-05-05 00:10 | NJDOT | 56 | 50 | 80 | ||||||
| Ocean City | NJ | 2026-05-04 23:15 | NJDOT | 56 | 49 | 77 | ||||||
| Ocean City | NJ | 2026-05-04 23:20 | NJDOT | 56 | 49 | 77 | ||||||
| Ocean City | NJ | 2026-05-04 23:25 | NJDOT | 56 | 49 | 77 | ||||||
| Ocean City | NJ | 2026-05-04 23:30 | NJDOT | 56 | 49 | 77 | ||||||
| Ocean City | NJ | 2026-05-04 23:35 | NJDOT | 56 | 49 | 77 | ||||||
| Ocean City | NJ | 2026-05-04 23:40 | NJDOT | 56 | 49 | 77 | ||||||
| Ocean City | NJ | 2026-05-04 23:45 | NJDOT | 56 | 50 | 80 | ||||||
| Ocean City | NJ | 2026-05-04 23:50 | NJDOT | 56 | 50 | 80 | ||||||
| Ocean City | NJ | 2026-05-05 00:00 | NJDOT | 56 | 50 | 80 | ||||||
| Ocean City | NJ | 2026-05-05 00:05 | NJDOT | 56 | 50 | 80 | ||||||
| Ocean City | NJ | 2026-05-05 00:15 | NJDOT | 56 | 50 | 80 | ||||||
| Ocean City | NJ | 2026-05-05 05:00 | NJDOT | 60 | 51 | 72 | ||||||
| Ocean City | NJ | 2026-05-05 01:55 | NJDOT | 59 | 51 | 75 | ||||||
| Ocean City | NJ | 2026-05-05 02:00 | NJDOT | 59 | 51 | 75 | ||||||
| Ocean City | NJ | 2026-05-05 02:20 | NJDOT | 59 | 51 | 75 | ||||||
| Ocean City | NJ | 2026-05-05 03:00 | NJDOT | 59 | 51 | 75 | ||||||
| Ocean City | NJ | 2026-05-05 03:15 | NJDOT | 59 | 51 | 75 | ||||||
| Ocean City | NJ | 2026-05-05 03:35 | NJDOT | 59 | 51 | 75 | ||||||
| Ocean City | NJ | 2026-05-05 03:40 | NJDOT | 59 | 51 | 75 | ||||||
| Ocean City | NJ | 2026-05-05 03:45 | NJDOT | 59 | 51 | 75 | ||||||
| Ocean City | NJ | 2026-05-05 03:50 | NJDOT | 59 | 51 | 75 | ||||||
| Ocean City | NJ | 2026-05-05 04:20 | NJDOT | 59 | 51 | 75 | ||||||
| Ocean City | NJ | 2026-05-05 04:40 | NJDOT | 59 | 51 | 75 | ||||||
| Ocean City | NJ | 2026-05-05 07:40 | NJDOT | 61 | 51 | 70 | ||||||
| Ocean City | NJ | 2026-05-05 07:50 | NJDOT | 63 | 51 | 65 | ||||||
| Ocean City | NJ | 2026-05-05 12:35 | NJDOT | 69 | 51 | 53 | ||||||
| Ocean City | NJ | 2026-05-05 11:25 | NJDOT | 68 | 50 | 53 | ||||||
| Ocean City | NJ | 2026-05-05 10:30 | NJDOT | 67 | 50 | 55 | ||||||
| Ocean City | NJ | 2026-05-05 10:35 | NJDOT | 67 | 50 | 55 | ||||||
| Ocean City | NJ | 2026-05-05 10:40 | NJDOT | 67 | 50 | 55 | ||||||
| Ocean City | NJ | 2026-05-05 10:45 | NJDOT | 67 | 50 | 55 | ||||||
| Ocean City | NJ | 2026-05-05 10:50 | NJDOT | 68 | 50 | 53 | ||||||
| Ocean City | NJ | 2026-05-05 11:00 | NJDOT | 68 | 50 | 53 | ||||||
| Ocean City | NJ | 2026-05-05 11:05 | NJDOT | 68 | 50 | 53 | ||||||
| Ocean City | NJ | 2026-05-05 11:10 | NJDOT | 68 | 50 | 53 | ||||||
| Ocean City | NJ | 2026-05-05 11:15 | NJDOT | 68 | 50 | 53 | ||||||
| Ocean City | NJ | 2026-05-05 11:20 | NJDOT | 68 | 50 | 53 | ||||||
| Ocean City | NJ | 2026-05-05 11:30 | NJDOT | 68 | 50 | 53 | ||||||
| Ocean City | NJ | 2026-05-05 10:20 | NJDOT | 67 | 50 | 55 | ||||||
| Ocean City | NJ | 2026-05-05 11:35 | NJDOT | 68 | 50 | 53 | ||||||
| Ocean City | NJ | 2026-05-05 11:40 | NJDOT | 68 | 50 | 53 | ||||||
| Ocean City | NJ | 2026-05-05 11:45 | NJDOT | 68 | 50 | 53 | ||||||
| Ocean City | NJ | 2026-05-05 11:50 | NJDOT | 69 | 51 | 53 | ||||||
| Ocean City | NJ | 2026-05-05 12:00 | NJDOT | 69 | 51 | 53 | ||||||
| Ocean City | NJ | 2026-05-05 12:05 | NJDOT | 69 | 51 | 53 | ||||||
| Ocean City | NJ | 2026-05-05 12:10 | NJDOT | 69 | 51 | 53 | ||||||
| Ocean City | NJ | 2026-05-05 12:15 | NJDOT | 69 | 51 | 53 | ||||||
| Ocean City | NJ | 2026-05-05 12:20 | NJDOT | 69 | 51 | 53 | ||||||
| Ocean City | NJ | 2026-05-05 12:25 | NJDOT | 69 | 51 | 53 | ||||||
| Ocean City | NJ | 2026-05-05 12:30 | NJDOT | 69 | 51 | 53 | ||||||
| Ocean City | NJ | 2026-05-05 10:25 | NJDOT | 67 | 50 | 55 | ||||||
| Ocean City | NJ | 2026-05-05 10:15 | NJDOT | 67 | 50 | 55 | ||||||
| Ocean City | NJ | 2026-05-05 08:00 | NJDOT | 63 | 51 | 65 | ||||||
| Ocean City | NJ | 2026-05-05 09:00 | NJDOT | 65 | 51 | 61 | ||||||
| Ocean City | NJ | 2026-05-05 08:05 | NJDOT | 63 | 51 | 65 | ||||||
| Ocean City | NJ | 2026-05-05 08:10 | NJDOT | 63 | 51 | 65 | ||||||
| Ocean City | NJ | 2026-05-05 08:15 | NJDOT | 63 | 51 | 65 | ||||||
| Ocean City | NJ | 2026-05-05 08:20 | NJDOT | 63 | 51 | 65 | ||||||
| Ocean City | NJ | 2026-05-05 08:25 | NJDOT | 63 | 51 | 65 | ||||||
| Ocean City | NJ | 2026-05-05 08:30 | NJDOT | 63 | 51 | 65 | ||||||
| Ocean City | NJ | 2026-05-05 08:35 | NJDOT | 63 | 51 | 65 | ||||||
| Ocean City | NJ | 2026-05-05 08:40 | NJDOT | 63 | 51 | 65 | ||||||
| Ocean City | NJ | 2026-05-05 08:45 | NJDOT | 63 | 51 | 65 | ||||||
| Ocean City | NJ | 2026-05-05 08:50 | NJDOT | 65 | 51 | 61 | ||||||
| Ocean City | NJ | 2026-05-05 09:05 | NJDOT | 65 | 51 | 61 | ||||||
| Ocean City | NJ | 2026-05-05 10:10 | NJDOT | 67 | 50 | 55 | ||||||
| Ocean City | NJ | 2026-05-05 09:10 | NJDOT | 65 | 51 | 61 | ||||||
| Ocean City | NJ | 2026-05-05 09:15 | NJDOT | 65 | 51 | 61 | ||||||
| Ocean City | NJ | 2026-05-05 09:20 | NJDOT | 65 | 51 | 61 | ||||||
| Ocean City | NJ | 2026-05-05 09:25 | NJDOT | 65 | 51 | 61 | ||||||
| Ocean City | NJ | 2026-05-05 09:30 | NJDOT | 65 | 51 | 61 | ||||||
| Ocean City | NJ | 2026-05-05 09:35 | NJDOT | 65 | 51 | 61 | ||||||
| Ocean City | NJ | 2026-05-05 09:40 | NJDOT | 65 | 51 | 61 | ||||||
| Ocean City | NJ | 2026-05-05 09:45 | NJDOT | 65 | 51 | 61 | ||||||
| Ocean City | NJ | 2026-05-05 09:50 | NJDOT | 67 | 50 | 55 | ||||||
| Ocean City | NJ | 2026-05-05 10:00 | NJDOT | 67 | 50 | 55 | ||||||
| Ocean City | NJ | 2026-05-05 10:05 | NJDOT | 67 | 50 | 55 | ||||||
| Ocean City | NJ | 2026-05-05 23:00 | NJDOT | 61 | 54 | 78 |
data collection created in 0.023155927658081 (queried in 0.005776) rendered in: 0.00025510787963867

